Time;durP1;ratioP1;P1;durP2;ratioP2;P2;SDS_P1;SDS_P2;PMS_P1;PMS_P2;Temp;Humidity;BMP_temperature;BMP_pressure;BME280_temperature;BME280_humidity;BME280_pressure;Samples;Min_cycle;Max_cycle;Signal;HPM_P1;HPM_P2
2023/09/10 00:00:22;;;;;;;4.10;3.75;;;20.80;99.90;;;;;;5056775;28;20399;-74
2023/09/10 00:02:48;;;;;;;4.55;4.15;;;20.80;99.90;;;;;;5071428;28;20074;-74
2023/09/10 00:05:15;;;;;;;4.80;4.40;;;20.80;99.90;;;;;;5070039;28;20024;-74
2023/09/10 00:07:42;;;;;;;4.53;4.15;;;20.70;99.90;;;;;;5060821;28;20487;-74
2023/09/10 00:10:08;;;;;;;4.43;4.05;;;20.70;99.90;;;;;;5074392;28;20031;-73
2023/09/10 00:12:35;;;;;;;5.00;4.60;;;20.70;99.90;;;;;;5049120;27;20530;-73
2023/09/10 00:15:01;;;;;;;4.97;4.57;;;20.70;99.90;;;;;;5103532;27;20368;-73
2023/09/10 00:17:28;;;;;;;4.35;3.95;;;20.70;99.90;;;;;;5067275;28;20043;-74
2023/09/10 00:19:54;;;;;;;4.70;4.30;;;20.60;99.90;;;;;;5070724;28;20031;-74
2023/09/10 00:22:20;;;;;;;5.20;4.70;;;20.70;99.90;;;;;;5060011;28;20032;-77
2023/09/10 00:24:47;;;;;;;4.68;4.28;;;20.60;99.90;;;;;;5087306;27;20036;-73
2023/09/10 00:27:14;;;;;;;5.25;4.78;;;20.60;99.90;;;;;;5088156;28;20031;-73
2023/09/10 00:29:40;;;;;;;4.90;4.50;;;20.60;99.90;;;;;;5063685;28;20035;-73
2023/09/10 00:32:07;;;;;;;5.38;4.88;;;20.50;99.90;;;;;;5066599;28;20035;-73
2023/09/10 00:34:34;;;;;;;4.95;4.47;;;20.50;99.90;;;;;;5086430;28;20401;-73
2023/09/10 00:37:01;;;;;;;4.93;4.53;;;20.50;99.90;;;;;;5068899;28;20035;-73
2023/09/10 00:39:27;;;;;;;5.28;4.88;;;20.50;99.90;;;;;;5086466;28;20489;-74
2023/09/10 00:41:54;;;;;;;5.05;4.65;;;20.50;99.90;;;;;;5105227;28;20487;-74
2023/09/10 00:44:23;;;;;;;5.50;5.00;;;20.50;99.90;;;;;;5088278;28;20034;-73
2023/09/10 00:46:51;;;;;;;4.72;4.30;;;20.50;99.90;;;;;;5087251;28;20454;-74
2023/09/10 00:49:18;;;;;;;5.55;5.00;;;20.50;99.90;;;;;;5068769;28;20043;-74
2023/09/10 00:51:47;;;;;;;4.97;4.57;;;20.50;99.90;;;;;;5072442;28;20045;-74
2023/09/10 00:54:16;;;;;;;5.15;4.75;;;20.50;99.90;;;;;;5071524;28;20446;-74
2023/09/10 00:56:42;;;;;;;5.45;4.95;;;20.50;99.90;;;;;;5054814;28;20036;-74
2023/09/10 00:59:09;;;;;;;5.40;4.95;;;20.50;99.90;;;;;;5089376;28;20032;-74
2023/09/10 01:01:36;;;;;;;4.63;4.22;;;20.50;99.90;;;;;;5068009;28;20394;-75
2023/09/10 01:04:02;;;;;;;5.57;5.07;;;20.40;99.90;;;;;;5077776;28;20034;-74
2023/09/10 01:06:29;;;;;;;5.40;4.90;;;20.40;99.90;;;;;;5057430;28;20507;-74
2023/09/10 01:08:56;;;;;;;5.35;4.93;;;20.40;99.90;;;;;;5107382;28;20036;-74
2023/09/10 01:12:01;;;;;;;6.47;5.80;;;20.40;99.90;;;;;;5088235;28;20042;-74
2023/09/10 01:14:59;;;;;;;5.05;4.63;;;20.40;99.90;;;;;;5067909;28;20039;-74
2023/09/10 01:17:34;;;;;;;5.43;4.93;;;20.40;99.90;;;;;;5086622;28;20395;-73
2023/09/10 01:20:09;;;;;;;6.20;5.40;;;20.30;99.90;;;;;;5088021;28;20031;-75
2023/09/10 01:22:50;;;;;;;6.05;5.50;;;20.30;99.90;;;;;;5053311;28;20044;-74
2023/09/10 01:25:18;;;;;;;7.63;6.28;;;20.30;99.90;;;;;;5088131;28;20039;-74
2023/09/10 01:27:46;;;;;;;5.95;5.45;;;20.30;99.90;;;;;;5088214;28;20402;-74
2023/09/10 01:30:13;;;;;;;6.53;6.00;;;20.30;99.90;;;;;;5071229;28;20040;-75
2023/09/10 01:32:55;;;;;;;5.93;5.43;;;20.30;99.90;;;;;;5088394;28;20028;-75
2023/09/10 01:35:31;;;;;;;5.32;4.82;;;20.30;99.90;;;;;;5077392;28;20035;-74
2023/09/10 01:38:19;;;;;;;6.15;5.65;;;20.20;99.90;;;;;;5079207;28;20040;-74
2023/09/10 01:41:08;;;;;;;5.90;5.38;;;20.30;99.90;;;;;;5055109;28;20042;-74
2023/09/10 01:43:35;;;;;;;7.40;6.78;;;20.30;99.90;;;;;;5083966;28;20054;-74
2023/09/10 01:46:03;;;;;;;6.70;6.10;;;20.20;99.90;;;;;;5071602;28;20042;-74
2023/09/10 01:48:30;;;;;;;5.85;5.35;;;20.20;99.90;;;;;;5085487;28;20038;-74
2023/09/10 01:50:57;;;;;;;6.07;5.35;;;20.20;99.90;;;;;;5075896;28;20039;-75
2023/09/10 01:53:23;;;;;;;6.90;6.30;;;20.20;99.90;;;;;;5057122;28;20047;-74
2023/09/10 01:55:50;;;;;;;6.28;5.68;;;20.20;99.90;;;;;;5074122;28;20047;-74
2023/09/10 01:58:16;;;;;;;5.93;5.38;;;20.20;99.90;;;;;;5071526;28;20433;-74
2023/09/10 02:00:43;;;;;;;6.40;5.80;;;20.20;99.90;;;;;;5050586;28;20027;-74
2023/09/10 02:03:10;;;;;;;6.80;5.80;;;20.20;99.90;;;;;;5072345;28;20103;-74
2023/09/10 02:05:37;;;;;;;6.05;5.55;;;20.20;99.90;;;;;;5091214;28;20506;-73
2023/09/10 02:08:06;;;;;;;5.75;5.18;;;20.20;99.90;;;;;;5092350;28;20398;-75
2023/09/10 02:10:33;;;;;;;6.15;5.55;;;20.20;99.90;;;;;;5073413;28;20681;-74
2023/09/10 02:13:00;;;;;;;5.10;4.70;;;20.20;99.90;;;;;;5090691;28;20027;-74
2023/09/10 02:15:26;;;;;;;6.03;5.53;;;20.20;99.90;;;;;;5073560;28;20418;-73
2023/09/10 02:17:53;;;;;;;5.90;5.40;;;20.20;99.90;;;;;;5091574;28;20050;-75
2023/09/10 02:20:20;;;;;;;6.30;5.70;;;20.10;99.90;;;;;;5074254;28;20035;-74
2023/09/10 02:22:47;;;;;;;6.30;5.75;;;20.20;99.90;;;;;;5072037;27;20489;-75
2023/09/10 02:25:14;;;;;;;6.93;6.25;;;20.20;99.90;;;;;;5093974;28;20082;-74
2023/09/10 02:27:40;;;;;;;6.60;5.95;;;20.20;99.90;;;;;;5068950;28;20039;-75
2023/09/10 02:30:07;;;;;;;6.43;5.82;;;20.20;99.90;;;;;;5091748;28;20035;-74
2023/09/10 02:32:35;;;;;;;5.50;5.00;;;20.20;99.90;;;;;;5075490;28;20043;-74
2023/09/10 02:35:03;;;;;;;6.90;6.30;;;20.20;99.90;;;;;;5068410;28;20040;-74
2023/09/10 02:37:31;;;;;;;6.07;5.57;;;20.20;99.90;;;;;;5074614;28;20028;-74
2023/09/10 02:39:57;;;;;;;5.78;5.28;;;20.20;99.90;;;;;;5072515;28;20050;-73
2023/09/10 02:42:24;;;;;;;5.13;4.63;;;20.20;99.90;;;;;;5090381;28;20031;-74
2023/09/10 02:44:50;;;;;;;5.72;5.30;;;20.20;99.90;;;;;;5090517;28;20034;-74
2023/09/10 02:47:17;;;;;;;6.32;5.75;;;20.20;99.90;;;;;;5092042;28;20038;-73
2023/09/10 02:49:43;;;;;;;6.20;5.70;;;20.20;99.90;;;;;;5087498;28;20414;-75
2023/09/10 02:52:10;;;;;;;5.70;5.13;;;20.20;99.90;;;;;;5074200;28;20032;-74
2023/09/10 02:54:36;;;;;;;5.38;4.88;;;20.20;99.90;;;;;;5073184;28;20039;-74
2023/09/10 02:57:03;;;;;;;7.45;6.75;;;20.10;99.90;;;;;;5074659;28;20409;-74
2023/09/10 02:59:29;;;;;;;5.78;5.38;;;20.20;99.90;;;;;;5067577;28;20040;-73
2023/09/10 03:01:56;;;;;;;5.20;4.70;;;20.20;99.90;;;;;;5088166;28;20032;-73
2023/09/10 03:04:22;;;;;;;5.50;5.00;;;20.20;99.90;;;;;;5090068;28;20035;-74
2023/09/10 03:06:50;;;;;;;7.05;6.45;;;20.10;99.90;;;;;;5073138;28;20027;-74
2023/09/10 03:09:17;;;;;;;5.95;5.45;;;20.10;99.90;;;;;;5058832;28;20501;-74
2023/09/10 03:11:46;;;;;;;7.15;6.10;;;20.10;99.90;;;;;;5057016;28;20507;-74
2023/09/10 03:14:13;;;;;;;6.55;5.95;;;20.00;99.90;;;;;;5074138;28;20027;-74
2023/09/10 03:16:40;;;;;;;5.10;4.70;;;20.00;99.90;;;;;;5074230;28;20036;-75
2023/09/10 03:19:10;;;;;;;5.18;4.78;;;20.00;99.90;;;;;;5062155;28;20040;-74
2023/09/10 03:21:37;;;;;;;5.35;4.93;;;20.00;99.90;;;;;;5074893;27;20047;-75
2023/09/10 03:24:05;;;;;;;6.65;6.13;;;19.90;99.90;;;;;;5073614;28;20035;-74
2023/09/10 03:26:32;;;;;;;6.60;6.03;;;20.00;99.90;;;;;;5072775;28;20504;-75
2023/09/10 03:28:58;;;;;;;6.65;6.13;;;19.90;99.90;;;;;;5073720;28;20032;-75
2023/09/10 03:31:25;;;;;;;7.13;6.53;;;19.90;99.90;;;;;;5072030;28;20043;-75
2023/09/10 03:33:51;;;;;;;6.88;6.25;;;19.90;99.90;;;;;;5090122;28;20417;-74
2023/09/10 03:36:18;;;;;;;7.35;6.75;;;19.90;99.90;;;;;;5072495;28;20039;-74
2023/09/10 03:38:44;;;;;;;8.05;7.35;;;19.90;99.90;;;;;;5072985;28;20425;-74
2023/09/10 03:41:11;;;;;;;8.75;7.95;;;19.90;99.90;;;;;;5072992;28;20031;-75
2023/09/10 03:43:38;;;;;;;9.30;8.40;;;19.90;99.90;;;;;;5055781;28;20028;-73
2023/09/10 03:46:04;;;;;;;8.57;7.65;;;19.90;99.90;;;;;;5072478;28;20035;-75
2023/09/10 03:48:30;;;;;;;10.38;9.38;;;19.90;99.90;;;;;;5053084;28;20046;-73
2023/09/10 03:50:57;;;;;;;8.73;7.93;;;19.90;99.90;;;;;;5074718;27;20058;-74
2023/09/10 03:53:24;;;;;;;7.75;7.05;;;19.90;99.90;;;;;;5061181;28;20031;-74
2023/09/10 03:55:50;;;;;;;7.75;7.05;;;19.90;99.90;;;;;;5072916;28;20035;-75
2023/09/10 03:58:16;;;;;;;8.88;8.07;;;19.90;99.90;;;;;;5046386;28;20498;-74
2023/09/10 04:00:43;;;;;;;8.43;7.72;;;19.90;99.90;;;;;;5090016;28;20470;-75
2023/09/10 04:03:09;;;;;;;9.75;8.90;;;19.90;99.90;;;;;;5066597;28;20027;-75
2023/09/10 04:05:36;;;;;;;8.10;7.40;;;19.80;99.90;;;;;;5055390;28;20036;-74
2023/09/10 04:08:05;;;;;;;9.23;8.43;;;19.80;99.90;;;;;;5071582;28;20031;-75
2023/09/10 04:10:31;;;;;;;9.30;8.50;;;19.80;99.90;;;;;;5072901;28;20057;-74
2023/09/10 04:12:57;;;;;;;10.88;9.77;;;19.80;99.90;;;;;;5086463;28;20036;-74
2023/09/10 04:15:24;;;;;;;8.95;8.15;;;19.80;99.90;;;;;;5072046;28;20058;-74
2023/09/10 04:17:50;;;;;;;8.60;7.80;;;19.80;99.90;;;;;;5087640;28;20036;-75
2023/09/10 04:20:19;;;;;;;13.10;11.77;;;19.80;99.90;;;;;;5092937;28;20035;-75
2023/09/10 04:22:46;;;;;;;11.32;10.32;;;19.80;99.90;;;;;;5088396;28;20040;-75
2023/09/10 04:25:13;;;;;;;9.40;8.50;;;19.70;99.90;;;;;;5072534;28;20398;-74
2023/09/10 04:27:39;;;;;;;9.32;8.55;;;19.70;99.90;;;;;;5071783;28;20094;-75
2023/09/10 04:30:08;;;;;;;13.30;12.15;;;19.80;99.90;;;;;;5071853;28;20036;-75
2023/09/10 04:32:35;;;;;;;10.85;9.85;;;19.70;99.90;;;;;;5092082;28;20042;-76
2023/09/10 04:35:04;;;;;;;11.35;10.32;;;19.70;99.90;;;;;;5071696;28;20024;-75
2023/09/10 04:37:32;;;;;;;11.15;10.05;;;19.70;99.90;;;;;;5088477;28;20478;-76
2023/09/10 04:40:00;;;;;;;10.68;9.73;;;19.80;99.90;;;;;;5087600;28;20031;-74
2023/09/10 04:42:26;;;;;;;10.25;9.25;;;19.80;99.90;;;;;;5088250;28;20046;-75
2023/09/10 04:44:53;;;;;;;9.15;8.32;;;19.70;99.90;;;;;;5085864;28;20099;-75
2023/09/10 04:47:19;;;;;;;8.70;7.90;;;19.70;99.90;;;;;;5087827;28;20046;-75
2023/09/10 04:49:45;;;;;;;7.82;7.13;;;19.70;99.90;;;;;;5105542;28;20043;-76
2023/09/10 04:52:12;;;;;;;9.63;8.82;;;19.70;99.90;;;;;;5072393;28;20630;-76
2023/09/10 04:54:38;;;;;;;10.50;9.27;;;19.70;99.90;;;;;;5066988;28;20040;-76
2023/09/10 04:57:05;;;;;;;9.10;8.25;;;19.70;99.90;;;;;;5071907;28;20032;-75
2023/09/10 04:59:33;;;;;;;10.43;9.52;;;19.70;99.90;;;;;;5074324;28;20054;-76
2023/09/10 05:02:00;;;;;;;9.30;8.40;;;19.70;99.90;;;;;;5073276;28;20027;-75
2023/09/10 05:04:27;;;;;;;9.45;8.57;;;19.70;99.90;;;;;;5049885;28;20040;-75
2023/09/10 05:06:53;;;;;;;8.50;7.72;;;19.70;99.90;;;;;;5104188;28;20490;-75
2023/09/10 05:09:20;;;;;;;11.02;10.13;;;19.70;99.90;;;;;;5062522;28;20392;-74
2023/09/10 05:11:46;;;;;;;9.25;8.45;;;19.70;99.90;;;;;;5064975;28;20035;-75
2023/09/10 05:14:13;;;;;;;11.80;9.65;;;19.70;99.90;;;;;;5067462;28;20386;-75
2023/09/10 05:16:39;;;;;;;11.40;10.30;;;19.70;99.90;;;;;;5071172;28;20430;-76
2023/09/10 05:19:06;;;;;;;10.23;9.23;;;19.70;99.90;;;;;;5071970;28;20066;-75
2023/09/10 05:21:33;;;;;;;9.38;8.55;;;19.70;99.90;;;;;;5072231;28;20521;-74
2023/09/10 05:24:00;;;;;;;10.23;9.23;;;19.70;99.90;;;;;;5072743;28;20508;-76
2023/09/10 05:26:27;;;;;;;10.63;9.63;;;19.80;99.90;;;;;;5093986;28;20032;-75
2023/09/10 05:28:53;;;;;;;9.77;8.88;;;19.80;99.90;;;;;;5092777;28;20498;-75
2023/09/10 05:31:20;;;;;;;12.32;10.73;;;19.80;99.90;;;;;;5091192;28;20494;-76
2023/09/10 05:33:46;;;;;;;11.82;10.73;;;19.80;99.90;;;;;;5107706;28;20036;-75
2023/09/10 05:36:13;;;;;;;10.60;9.70;;;19.90;99.90;;;;;;5090105;28;20027;-75
2023/09/10 05:38:39;;;;;;;9.77;8.95;;;19.90;99.90;;;;;;5075628;28;20046;-74
2023/09/10 05:41:07;;;;;;;10.65;9.65;;;19.90;99.90;;;;;;5051387;28;20031;-76
2023/09/10 05:43:33;;;;;;;10.40;9.40;;;20.00;99.90;;;;;;5055441;28;20043;-75
2023/09/10 05:46:00;;;;;;;11.35;9.35;;;20.00;99.90;;;;;;5061400;28;20035;-76
2023/09/10 05:48:27;;;;;;;9.25;8.45;;;20.00;99.90;;;;;;5067994;28;20036;-75
2023/09/10 05:50:57;;;;;;;8.93;8.13;;;20.10;99.90;;;;;;5075376;28;20044;-75
2023/09/10 05:53:24;;;;;;;10.15;9.15;;;20.10;99.90;;;;;;5067909;28;20027;-78
2023/09/10 05:55:51;;;;;;;9.35;8.55;;;20.10;99.90;;;;;;5079492;28;20027;-79
2023/09/10 05:58:20;;;;;;;9.20;8.40;;;20.20;99.90;;;;;;5106734;28;20027;-81
2023/09/10 06:00:46;;;;;;;11.48;10.40;;;20.20;99.90;;;;;;5056659;28;20386;-82
2023/09/10 06:03:13;;;;;;;11.88;10.77;;;20.30;99.90;;;;;;5092746;28;20031;-81
2023/09/10 06:05:39;;;;;;;10.00;9.10;;;20.30;99.90;;;;;;5073903;28;20508;-78
2023/09/10 06:08:06;;;;;;;9.93;9.02;;;20.40;99.90;;;;;;5049186;28;20042;-78
2023/09/10 06:10:32;;;;;;;10.45;9.48;;;20.50;99.90;;;;;;5058469;28;20075;-78
2023/09/10 06:12:59;;;;;;;10.05;9.20;;;20.50;99.90;;;;;;5111835;27;20024;-77
2023/09/10 06:15:27;;;;;;;10.43;9.52;;;20.70;99.90;;;;;;5091235;28;20038;-75
2023/09/10 06:17:54;;;;;;;11.90;10.80;;;20.70;99.90;;;;;;5072509;28;20047;-74
2023/09/10 06:20:20;;;;;;;14.70;13.27;;;20.90;99.90;;;;;;5092546;28;20379;-75
2023/09/10 06:22:47;;;;;;;11.57;10.57;;;20.90;99.90;;;;;;5090968;28;20394;-75
2023/09/10 06:25:13;;;;;;;11.35;10.40;;;21.00;99.90;;;;;;5094875;27;20034;-74
2023/09/10 06:27:40;;;;;;;12.75;11.60;;;21.10;99.90;;;;;;5088618;28;20043;-77
2023/09/10 06:30:06;;;;;;;12.60;11.48;;;21.20;99.90;;;;;;5077703;28;20161;-76
2023/09/10 06:32:34;;;;;;;12.25;11.15;;;21.30;99.90;;;;;;5091659;28;20032;-74
2023/09/10 06:35:00;;;;;;;11.07;10.13;;;21.40;99.90;;;;;;5057593;28;20252;-77
2023/09/10 06:37:27;;;;;;;10.02;9.13;;;21.50;99.90;;;;;;5074508;28;20035;-73
2023/09/10 06:39:53;;;;;;;11.98;10.95;;;21.60;99.90;;;;;;5060024;28;20089;-75
2023/09/10 06:42:20;;;;;;;10.73;9.82;;;21.70;99.90;;;;;;5092780;28;20036;-76
2023/09/10 06:45:02;;;;;;;10.65;9.65;;;21.80;99.90;;;;;;5091344;28;20031;-76
2023/09/10 06:47:28;;;;;;;11.60;10.60;;;21.90;99.90;;;;;;5090520;28;20039;-74
2023/09/10 06:49:54;;;;;;;13.32;12.02;;;22.00;99.90;;;;;;5108785;28;20039;-78
2023/09/10 06:52:21;;;;;;;14.23;12.93;;;22.10;99.90;;;;;;5091235;28;20035;-74
2023/09/10 06:54:47;;;;;;;12.95;11.95;;;22.20;99.90;;;;;;5073853;28;20482;-74
2023/09/10 06:57:14;;;;;;;13.35;12.15;;;22.30;99.90;;;;;;5074038;28;20031;-74
2023/09/10 06:59:40;;;;;;;12.23;11.00;;;22.40;99.90;;;;;;5090447;28;20036;-77
2023/09/10 07:02:07;;;;;;;10.63;9.63;;;22.50;99.90;;;;;;5065931;28;20035;-74
2023/09/10 07:04:33;;;;;;;11.20;10.20;;;22.60;99.90;;;;;;5073599;28;20031;-73
2023/09/10 07:06:59;;;;;;;11.65;10.55;;;22.70;99.90;;;;;;5074001;28;20034;-74
2023/09/10 07:09:26;;;;;;;14.63;13.32;;;22.80;99.90;;;;;;5073498;28;20043;-73
2023/09/10 07:11:53;;;;;;;10.48;9.57;;;22.90;99.90;;;;;;5074544;28;20042;-76
2023/09/10 07:14:21;;;;;;;12.60;11.55;;;23.00;99.90;;;;;;5070157;28;20059;-75
2023/09/10 07:16:48;;;;;;;14.05;12.75;;;23.10;99.90;;;;;;5081281;27;20262;-77
2023/09/10 07:19:15;;;;;;;13.82;12.63;;;23.20;99.90;;;;;;5054970;28;20036;-75
2023/09/10 07:21:41;;;;;;;12.48;11.38;;;23.30;99.90;;;;;;5090526;28;20171;-74
2023/09/10 07:24:09;;;;;;;13.98;12.68;;;23.30;99.90;;;;;;5089831;28;20406;-73
2023/09/10 07:26:36;;;;;;;14.98;13.57;;;23.50;99.90;;;;;;5105103;27;20042;-74
2023/09/10 07:29:07;;;;;;;14.32;13.13;;;23.60;99.90;;;;;;5056986;28;20573;-73
2023/09/10 07:31:34;;;;;;;15.85;14.48;;;23.70;99.90;;;;;;5099970;28;20046;-72
2023/09/10 07:34:02;;;;;;;14.05;12.85;;;23.80;99.90;;;;;;5089431;28;20513;-73
2023/09/10 07:36:29;;;;;;;15.02;13.63;;;23.90;99.90;;;;;;5089858;28;20039;-72
2023/09/10 07:38:55;;;;;;;12.80;11.63;;;24.00;99.90;;;;;;5107204;28;20031;-73
2023/09/10 07:41:22;;;;;;;12.93;11.73;;;24.10;99.90;;;;;;5088499;28;20043;-73
2023/09/10 07:43:49;;;;;;;15.05;13.85;;;24.20;99.90;;;;;;5072444;28;20043;-72
2023/09/10 07:46:15;;;;;;;14.00;12.63;;;24.30;99.90;;;;;;5086489;28;20459;-72
2023/09/10 07:48:42;;;;;;;16.13;14.73;;;24.40;99.90;;;;;;5086080;28;20051;-73
2023/09/10 07:51:08;;;;;;;14.10;12.85;;;24.60;99.90;;;;;;5088518;28;20106;-73
2023/09/10 07:53:34;;;;;;;20.38;18.27;;;24.70;99.90;;;;;;5055489;28;20043;-73
2023/09/10 07:56:01;;;;;;;17.42;15.73;;;24.80;99.90;;;;;;5088804;28;20393;-73
2023/09/10 07:58:28;;;;;;;16.30;14.93;;;24.90;99.90;;;;;;5107829;28;20028;-73
2023/09/10 08:00:56;;;;;;;14.05;12.82;;;25.00;99.90;;;;;;5072896;28;20047;-73
2023/09/10 08:03:23;;;;;;;19.88;16.50;;;25.10;99.90;;;;;;5056186;28;20039;-73
2023/09/10 08:05:49;;;;;;;12.50;11.43;;;25.10;99.90;;;;;;5067745;28;20036;-73
2023/09/10 08:08:16;;;;;;;16.88;15.38;;;25.30;99.90;;;;;;5073006;28;20039;-72
2023/09/10 08:10:44;;;;;;;16.77;15.27;;;25.40;99.90;;;;;;5070896;28;20413;-72
2023/09/10 08:13:12;;;;;;;16.60;15.18;;;25.50;99.90;;;;;;5062022;27;20027;-73
2023/09/10 08:15:42;;;;;;;15.98;14.50;;;25.60;99.90;;;;;;5073563;28;20335;-72
2023/09/10 08:18:11;;;;;;;19.83;18.13;;;25.70;99.90;;;;;;5073051;28;20028;-72
2023/09/10 08:20:42;;;;;;;17.42;15.65;;;25.80;99.90;;;;;;5054764;28;20044;-73
2023/09/10 08:23:09;;;;;;;14.73;13.30;;;25.80;99.90;;;;;;5089399;28;20398;-73
2023/09/10 08:25:36;;;;;;;13.68;12.52;;;25.90;99.90;;;;;;5070475;28;20933;-73
2023/09/10 08:28:03;;;;;;;15.02;13.73;;;26.00;99.90;;;;;;5070695;28;20028;-73
2023/09/10 08:30:30;;;;;;;14.18;12.88;;;26.00;99.90;;;;;;5073329;28;20058;-72
2023/09/10 08:32:57;;;;;;;17.40;15.95;;;26.10;99.90;;;;;;5055200;28;20394;-73
2023/09/10 08:35:24;;;;;;;17.25;15.60;;;26.20;99.90;;;;;;5072710;28;20027;-73
2023/09/10 08:37:51;;;;;;;15.45;14.13;;;26.30;99.90;;;;;;5071752;28;20048;-72
2023/09/10 08:40:17;;;;;;;14.60;13.30;;;26.40;99.90;;;;;;5056331;28;20498;-73
2023/09/10 08:43:08;;;;;;;17.52;16.02;;;26.50;99.90;;;;;;5070601;28;20043;-73
2023/09/10 08:45:35;;;;;;;14.80;13.50;;;26.70;99.90;;;;;;5086026;28;20023;-73
2023/09/10 08:48:02;;;;;;;15.15;13.85;;;26.80;99.90;;;;;;5072469;28;20056;-73
2023/09/10 08:50:30;;;;;;;12.35;11.32;;;26.90;99.90;;;;;;5086090;28;20034;-72
2023/09/10 08:52:57;;;;;;;25.27;22.98;;;27.10;99.90;;;;;;5088148;28;20039;-73
2023/09/10 08:55:25;;;;;;;18.45;16.95;;;27.20;99.90;;;;;;5088912;28;20474;-73
2023/09/10 08:57:54;;;;;;;24.00;21.90;;;27.30;99.90;;;;;;5071530;28;20053;-72
2023/09/10 09:00:22;;;;;;;15.23;13.85;;;27.40;99.90;;;;;;5070788;28;20518;-73
2023/09/10 09:02:49;;;;;;;21.23;19.23;;;27.50;99.90;;;;;;5088617;28;20042;-73
2023/09/10 09:05:16;;;;;;;16.02;14.52;;;27.60;99.90;;;;;;5088017;28;20055;-73
2023/09/10 09:07:51;;;;;;;22.65;20.55;;;27.60;99.90;;;;;;5100289;28;20411;-72
2023/09/10 09:10:25;;;;;;;22.90;20.70;;;27.70;99.90;;;;;;5089047;28;20032;-73
2023/09/10 09:12:55;;;;;;;23.33;21.08;;;27.80;99.90;;;;;;5107541;28;20039;-73
2023/09/10 09:15:23;;;;;;;15.73;14.33;;;27.80;99.90;;;;;;5087584;28;20035;-73
2023/09/10 09:17:50;;;;;;;15.13;13.75;;;27.90;99.90;;;;;;5072709;28;20487;-73
2023/09/10 09:20:18;;;;;;;19.63;17.70;;;28.00;99.90;;;;;;5071133;28;20335;-73
2023/09/10 09:22:48;;;;;;;17.45;15.77;;;28.10;99.90;;;;;;5055158;28;20044;-72
2023/09/10 09:25:15;;;;;;;14.80;13.40;;;28.20;99.90;;;;;;5067160;28;20050;-72
2023/09/10 09:27:43;;;;;;;13.90;12.70;;;28.30;99.90;;;;;;5089321;28;20036;-72
2023/09/10 09:30:11;;;;;;;19.15;17.35;;;28.40;99.90;;;;;;5057582;28;20139;-72
2023/09/10 09:32:39;;;;;;;17.00;15.57;;;28.60;99.90;;;;;;5075720;28;20027;-72
2023/09/10 09:35:09;;;;;;;15.73;14.23;;;28.80;99.90;;;;;;5085435;28;20489;-72
2023/09/10 09:37:36;;;;;;;29.65;26.67;;;28.90;99.90;;;;;;5073981;28;20055;-72
2023/09/10 09:40:03;;;;;;;14.65;13.35;;;29.10;99.90;;;;;;5072372;28;20031;-74
2023/09/10 09:42:30;;;;;;;31.58;28.55;;;29.30;99.90;;;;;;5107371;28;20040;-73
2023/09/10 09:45:00;;;;;;;17.35;15.55;;;29.40;99.90;;;;;;5083874;28;20035;-73
2023/09/10 09:47:26;;;;;;;18.42;16.60;;;29.60;99.90;;;;;;5102049;28;20028;-74
2023/09/10 09:49:56;;;;;;;12.30;11.05;;;29.60;99.90;;;;;;5089842;28;20043;-73
2023/09/10 09:52:22;;;;;;;12.50;11.35;;;29.80;99.90;;;;;;5104985;28;20023;-73
2023/09/10 09:54:49;;;;;;;13.82;12.23;;;29.90;99.90;;;;;;5087155;28;20032;-73
2023/09/10 09:57:16;;;;;;;11.48;10.43;;;29.90;99.90;;;;;;5104802;28;20548;-73
2023/09/10 09:59:44;;;;;;;15.88;14.48;;;30.00;99.90;;;;;;5071830;28;20032;-74
2023/09/10 10:02:15;;;;;;;11.30;10.20;;;30.10;99.90;;;;;;5070650;28;20370;-72
2023/09/10 10:04:43;;;;;;;13.73;12.07;;;30.30;99.90;;;;;;5074948;28;20549;-73
2023/09/10 10:07:14;;;;;;;11.45;10.25;;;30.40;99.90;;;;;;5066071;28;20040;-74
2023/09/10 10:09:41;;;;;;;9.10;8.23;;;30.50;99.90;;;;;;5073002;28;20047;-74
2023/09/10 10:12:08;;;;;;;10.88;9.88;;;30.60;99.90;;;;;;5094663;27;20023;-74
2023/09/10 10:14:36;;;;;;;10.20;9.30;;;30.70;99.90;;;;;;5090963;28;20027;-73
2023/09/10 10:17:05;;;;;;;9.02;7.53;;;30.80;99.90;;;;;;5068354;28;20040;-73
2023/09/10 10:19:33;;;;;;;10.55;8.43;;;31.00;99.90;;;;;;5110671;28;20039;-73
2023/09/10 10:22:01;;;;;;;10.02;9.02;;;31.20;99.90;;;;;;5065601;28;20390;-73
2023/09/10 10:24:28;;;;;;;9.27;8.38;;;31.40;99.80;;;;;;5057650;28;20068;-74
2023/09/10 10:26:54;;;;;;;10.85;7.00;;;31.60;99.50;;;;;;5051858;28;20036;-73
2023/09/10 10:29:22;;;;;;;8.75;7.43;;;31.90;99.20;;;;;;5062669;28;20424;-73
2023/09/10 10:32:15;;;;;;;11.98;8.50;;;32.10;98.90;;;;;;5110461;28;20062;-74
2023/09/10 10:34:51;;;;;;;8.27;7.47;;;32.40;98.30;;;;;;5089885;28;20466;-73
2023/09/10 10:37:44;;;;;;;11.80;8.48;;;32.80;97.90;;;;;;5109461;28;20030;-73
2023/09/10 10:40:19;;;;;;;8.27;6.75;;;33.00;97.30;;;;;;5103740;28;20051;-74
2023/09/10 10:43:03;;;;;;;12.38;7.32;;;33.40;96.90;;;;;;5075406;28;20519;-73
2023/09/10 10:45:33;;;;;;;7.57;6.80;;;33.80;96.40;;;;;;5112870;27;20036;-75
2023/09/10 10:48:20;;;;;;;10.05;6.68;;;34.00;96.00;;;;;;5056069;28;20043;-75
2023/09/10 10:50:48;;;;;;;9.63;6.85;;;34.50;94.80;;;;;;5072706;28;20505;-76
2023/09/10 10:53:21;;;;;;;9.13;7.38;;;34.70;94.20;;;;;;5076710;28;20031;-75
2023/09/10 10:55:53;;;;;;;8.40;6.93;;;35.00;93.60;;;;;;5090691;28;20042;-76
2023/09/10 10:58:21;;;;;;;16.02;11.57;;;35.30;93.10;;;;;;5062048;28;20039;-74
2023/09/10 11:00:52;;;;;;;9.60;8.02;;;35.60;92.00;;;;;;5058724;28;20043;-74
2023/09/10 11:03:21;;;;;;;11.93;6.57;;;35.90;91.80;;;;;;5071085;28;20059;-73
2023/09/10 11:06:04;;;;;;;7.82;6.82;;;36.10;91.00;;;;;;5088432;28;20027;-74
2023/09/10 11:08:38;;;;;;;11.52;8.50;;;36.30;90.50;;;;;;5085558;28;20406;-73
2023/09/10 11:11:09;;;;;;;9.90;6.35;;;36.60;89.90;;;;;;5088090;28;20058;-73
2023/09/10 11:14:01;;;;;;;;;;;36.90;88.70;;;;;;5088941;28;20031;-74
2023/09/10 11:16:34;;;;;;;10.60;6.20;;;37.00;87.40;;;;;;5087605;28;20382;-74
2023/09/10 11:19:05;;;;;;;7.78;5.32;;;37.40;86.40;;;;;;5090978;28;20024;-74
2023/09/10 11:21:54;;;;;;;10.25;6.18;;;37.70;85.70;;;;;;5089014;28;20036;-73
2023/09/10 11:24:21;;;;;;;10.43;7.63;;;37.90;83.90;;;;;;5106611;28;20042;-73
2023/09/10 11:26:48;;;;;;;8.88;7.05;;;38.10;83.00;;;;;;5105671;27;20057;-74
2023/09/10 11:29:19;;;;;;;9.75;7.05;;;38.30;82.00;;;;;;5058588;28;20042;-73
2023/09/10 11:31:47;;;;;;;8.75;6.18;;;38.60;81.00;;;;;;5090357;28;20043;-74
2023/09/10 11:34:23;;;;;;;9.70;7.60;;;38.80;80.50;;;;;;5090525;28;20435;-73
2023/09/10 11:37:02;;;;;;;7.97;7.07;;;39.10;79.60;;;;;;5056879;28;20046;-73
2023/09/10 11:39:33;;;;;;;8.70;6.80;;;39.30;78.10;;;;;;5106257;28;20024;-74
2023/09/10 11:42:01;;;;;;;6.38;5.63;;;39.30;77.20;;;;;;5055394;28;20039;-74
2023/09/10 11:44:31;;;;;;;10.25;6.82;;;39.40;77.00;;;;;;5083121;28;20039;-73
2023/09/10 11:46:57;;;;;;;9.57;6.32;;;39.60;75.70;;;;;;5072821;28;20027;-73
2023/09/10 11:49:24;;;;;;;7.03;6.32;;;39.80;75.10;;;;;;5089426;28;20031;-74
2023/09/10 11:51:54;;;;;;;9.90;6.18;;;40.00;74.50;;;;;;5069318;28;20035;-74
2023/09/10 11:54:21;;;;;;;7.45;6.57;;;40.30;73.70;;;;;;5085635;28;20058;-74
2023/09/10 11:56:54;;;;;;;9.55;5.60;;;40.60;72.40;;;;;;5089286;28;20047;-74
2023/09/10 11:59:26;;;;;;;7.57;6.13;;;40.70;71.60;;;;;;5068317;28;20043;-74
2023/09/10 12:01:54;;;;;;;15.00;6.80;;;40.90;71.30;;;;;;5087081;28;20039;-74
2023/09/10 12:04:25;;;;;;;7.45;4.78;;;41.00;70.00;;;;;;5063833;28;20043;-74
2023/09/10 12:06:52;;;;;;;7.90;5.25;;;41.10;70.00;;;;;;5091929;28;20050;-74
2023/09/10 12:09:18;;;;;;;9.23;5.28;;;41.40;68.70;;;;;;5050821;28;20031;-74
2023/09/10 12:11:46;;;;;;;8.60;7.15;;;41.60;68.30;;;;;;5055424;28;20055;-74
2023/09/10 12:14:13;;;;;;;7.38;6.63;;;41.70;66.90;;;;;;5085587;28;20040;-74
2023/09/10 12:16:40;;;;;;;10.23;6.75;;;41.50;67.20;;;;;;5088682;28;20035;-74
2023/09/10 12:19:07;;;;;;;11.88;6.82;;;41.50;66.80;;;;;;5073170;28;20036;-74
2023/09/10 12:21:34;;;;;;;8.18;5.50;;;41.30;66.70;;;;;;5053525;28;20032;-74
2023/09/10 12:24:00;;;;;;;10.57;9.35;;;41.30;67.30;;;;;;5090319;28;20027;-74
2023/09/10 12:26:27;;;;;;;10.52;8.20;;;41.40;66.40;;;;;;5084914;28;20512;-74
2023/09/10 12:28:54;;;;;;;14.95;13.15;;;41.50;65.80;;;;;;5055670;28;20491;-74
2023/09/10 12:31:21;;;;;;;9.88;8.88;;;41.70;65.70;;;;;;5055209;28;20038;-74
2023/09/10 12:33:47;;;;;;;9.23;7.70;;;41.90;65.00;;;;;;5063611;28;20038;-73
2023/09/10 12:36:14;;;;;;;7.60;6.90;;;42.10;64.40;;;;;;5103485;28;20028;-74
2023/09/10 12:38:41;;;;;;;8.32;4.90;;;42.20;64.10;;;;;;5089921;28;20027;-74
2023/09/10 12:41:07;;;;;;;8.35;4.78;;;42.00;63.80;;;;;;5052788;28;20051;-74
2023/09/10 12:43:35;;;;;;;6.90;4.47;;;41.80;63.80;;;;;;5071381;28;20052;-73